Retsil, Washington
Current Conditions -  °F | °C
As of 11:55 PM on Friday 24 Oct 2014 (Local Time) from KPWT Reporting Station
Overcast Overcast  
Wind Chill:   Ceiling: 5000
Heat Index:   Visibility: 10mi
Dew Point:   Wind: 8mph
Humidity: 100%   Direction: 10°N
Pressure: 29.77"   Gusts: NA
Location:  47.53°N, 122.59°W
Report Text: KPWT 250655Z AUTO 01007KT 10SM FEW043 OVC050 09/09 A2977 RMK AO1 P0002
Loading
Personal Weather Stations






























Interactive Weather Map
Tropical Storm Tracking
New forecast layout! Learn more

10-Day Weather Forecast

Advertisements
Track Severe Weather on mobile